createdAt,value
2024-02-12T00:01:46.642Z,7.75
2024-02-12T00:04:13.910Z,7.80
2024-02-12T00:06:41.577Z,6.60
2024-02-12T00:09:08.256Z,7.55
2024-02-12T00:11:36.198Z,8.68
2024-02-12T00:14:05.415Z,7.22
2024-02-12T00:16:32.348Z,6.97
2024-02-12T00:18:59.176Z,8.95
2024-02-12T00:21:25.921Z,8.55
2024-02-12T00:23:52.594Z,7.28
2024-02-12T00:26:26.699Z,8.57
2024-02-12T00:28:55.530Z,8.10
2024-02-12T00:31:22.929Z,9.45
2024-02-12T00:33:50.309Z,9.57
2024-02-12T00:36:18.725Z,8.70
2024-02-12T00:38:45.740Z,10.88
2024-02-12T00:41:16.225Z,8.57
2024-02-12T00:43:43.630Z,9.57
2024-02-12T00:46:11.691Z,9.27
2024-02-12T00:48:39.752Z,10.57
2024-02-12T00:51:06.813Z,10.80
2024-02-12T00:53:33.878Z,9.82
2024-02-12T00:56:01.367Z,10.23
2024-02-12T00:58:28.106Z,13.40
2024-02-12T01:00:54.935Z,10.00
2024-02-12T01:03:23.260Z,10.77
2024-02-12T01:05:50.346Z,10.73
2024-02-12T01:08:18.001Z,10.10
2024-02-12T01:10:44.782Z,12.20
2024-02-12T01:13:11.894Z,11.70
2024-02-12T01:15:38.674Z,12.35
2024-02-12T01:18:10.813Z,12.90
2024-02-12T01:20:39.179Z,12.65
2024-02-12T01:23:07.723Z,13.80
2024-02-12T01:25:34.643Z,14.35
2024-02-12T01:28:01.743Z,16.23
2024-02-12T01:30:29.577Z,13.05
2024-02-12T01:32:56.721Z,16.35
2024-02-12T01:35:23.746Z,16.77
2024-02-12T01:37:52.320Z,18.88
2024-02-12T01:40:19.017Z,20.70
2024-02-12T01:42:45.788Z,17.88
2024-02-12T01:45:17.624Z,17.92
2024-02-12T01:47:47.053Z,17.92
2024-02-12T01:50:14.925Z,18.48
2024-02-12T01:52:47.471Z,17.95
2024-02-12T01:55:15.117Z,20.35
2024-02-12T01:57:47.935Z,24.75
2024-02-12T02:00:18.431Z,23.55
2024-02-12T02:02:46.149Z,23.65
2024-02-12T02:05:17.000Z,28.08
2024-02-12T02:07:45.972Z,27.35
2024-02-12T02:10:15.834Z,24.10
2024-02-12T02:12:43.658Z,23.42
2024-02-12T02:15:11.164Z,24.50
2024-02-12T02:17:38.101Z,27.30
2024-02-12T02:20:08.174Z,22.50
2024-02-12T02:22:35.499Z,24.08
2024-02-12T02:25:02.403Z,24.58
2024-02-12T02:27:29.125Z,22.90
2024-02-12T02:29:56.014Z,22.85
2024-02-12T02:32:23.099Z,21.65
2024-02-12T02:34:49.950Z,22.35
2024-02-12T02:37:16.851Z,24.42
2024-02-12T02:39:43.474Z,23.27
2024-02-12T02:42:12.697Z,21.95
2024-02-12T02:44:40.760Z,23.35
2024-02-12T02:47:09.565Z,24.67
2024-02-12T02:49:36.456Z,23.63
2024-02-12T02:52:03.858Z,22.05
2024-02-12T02:54:30.766Z,24.30
2024-02-12T02:56:58.143Z,23.30
2024-02-12T02:59:26.330Z,23.73
2024-02-12T03:01:53.248Z,22.88
2024-02-12T03:04:19.957Z,24.52
2024-02-12T03:06:46.724Z,22.30
2024-02-12T03:09:14.749Z,23.15
2024-02-12T03:11:41.633Z,27.63
2024-02-12T03:14:10.049Z,25.77
2024-02-12T03:16:37.594Z,25.83
2024-02-12T03:19:06.311Z,24.98
2024-02-12T03:21:33.981Z,23.98
2024-02-12T03:24:01.190Z,27.38
2024-02-12T03:26:28.035Z,24.67
2024-02-12T03:28:54.792Z,27.92
2024-02-12T03:31:21.467Z,28.52
2024-02-12T03:33:50.525Z,25.58
2024-02-12T03:36:17.673Z,25.80
2024-02-12T03:38:45.738Z,26.70
2024-02-12T03:41:19.929Z,24.73
2024-02-12T03:43:47.233Z,27.35
2024-02-12T03:46:29.376Z,31.52
2024-02-12T03:49:14.565Z,29.45
2024-02-12T03:52:00.184Z,29.17
2024-02-12T03:54:45.483Z,30.75
2024-02-12T03:57:30.773Z,27.70
2024-02-12T03:59:57.464Z,27.70
2024-02-12T04:02:24.604Z,26.30
2024-02-12T04:04:51.829Z,26.88
2024-02-12T04:07:19.984Z,26.48
2024-02-12T04:09:46.634Z,29.88
2024-02-12T04:12:13.395Z,27.42
2024-02-12T04:14:41.515Z,25.77
2024-02-12T04:17:10.460Z,27.25
2024-02-12T04:19:37.812Z,30.48
2024-02-12T04:22:08.054Z,27.38
2024-02-12T04:24:37.238Z,26.38
2024-02-12T04:27:04.944Z,29.73
2024-02-12T04:29:33.507Z,32.65
2024-02-12T04:32:00.286Z,27.25
2024-02-12T04:34:26.973Z,31.17
2024-02-12T04:36:56.433Z,28.85
2024-02-12T04:39:23.189Z,26.90
2024-02-12T04:41:52.993Z,27.17
2024-02-12T04:44:21.091Z,28.52
2024-02-12T04:46:47.769Z,26.73
2024-02-12T04:49:15.062Z,27.42
2024-02-12T04:51:41.765Z,27.83
2024-02-12T04:54:08.682Z,24.63
2024-02-12T04:56:35.509Z,26.88
2024-02-12T04:59:02.903Z,28.98
2024-02-12T05:01:29.608Z,30.25
2024-02-12T05:03:56.380Z,26.90
2024-02-12T05:06:23.761Z,25.67
2024-02-12T05:08:53.359Z,26.92
2024-02-12T05:11:21.224Z,25.85
2024-02-12T05:13:48.440Z,27.08
2024-02-12T05:16:15.575Z,28.00
2024-02-12T05:19:01.159Z,24.08
2024-02-12T05:21:46.522Z,31.38
2024-02-12T05:24:13.164Z,23.48
2024-02-12T05:26:40.409Z,26.55
2024-02-12T05:29:08.166Z,24.83
2024-02-12T05:31:36.966Z,30.85
2024-02-12T05:34:04.381Z,27.25
2024-02-12T05:36:31.670Z,27.90
2024-02-12T05:38:58.486Z,29.35
2024-02-12T05:41:25.209Z,27.15
2024-02-12T05:43:54.282Z,27.75
2024-02-12T05:46:21.207Z,29.05
2024-02-12T05:48:48.733Z,28.58
2024-02-12T05:51:15.933Z,33.75
2024-02-12T05:53:42.781Z,32.83
2024-02-12T05:56:09.637Z,30.77
2024-02-12T05:58:36.475Z,31.35
2024-02-12T06:01:03.794Z,30.05
2024-02-12T06:03:31.627Z,30.52
2024-02-12T06:05:59.704Z,29.42
2024-02-12T06:08:27.724Z,29.17
2024-02-12T06:10:54.725Z,28.67
2024-02-12T06:13:21.847Z,28.52
2024-02-12T06:15:48.518Z,30.13
2024-02-12T06:18:16.830Z,31.13
2024-02-12T06:20:43.636Z,31.05
2024-02-12T06:23:10.401Z,28.27
2024-02-12T06:25:37.258Z,28.67
2024-02-12T06:28:06.826Z,29.58
2024-02-12T06:30:33.463Z,30.00
2024-02-12T06:33:00.326Z,28.92
2024-02-12T06:35:27.989Z,28.38
2024-02-12T06:37:54.609Z,27.88
2024-02-12T06:40:22.128Z,24.52
2024-02-12T06:42:49.034Z,27.88
2024-02-12T06:45:17.935Z,25.83
2024-02-12T06:47:44.931Z,27.63
2024-02-12T06:50:12.134Z,25.40
2024-02-12T06:52:40.354Z,27.08
2024-02-12T06:55:11.192Z,28.05
2024-02-12T06:57:38.729Z,24.70
2024-02-12T07:00:06.134Z,23.65
2024-02-12T07:02:37.012Z,23.85
2024-02-12T07:05:04.646Z,25.90
2024-02-12T07:07:34.793Z,23.23
2024-02-12T07:10:01.477Z,25.70
2024-02-12T07:12:28.189Z,21.90
2024-02-12T07:14:54.885Z,22.98
2024-02-12T07:17:22.652Z,26.95
2024-02-12T07:19:50.649Z,24.85
2024-02-12T07:22:21.251Z,20.80
2024-02-12T07:24:52.393Z,22.20
2024-02-12T07:27:22.638Z,23.42
2024-02-12T07:29:49.530Z,20.75
2024-02-12T07:32:16.474Z,20.92
2024-02-12T07:34:45.155Z,20.95
2024-02-12T07:37:12.073Z,20.20
2024-02-12T07:39:40.901Z,19.17
2024-02-12T07:42:09.790Z,20.75
2024-02-12T07:44:37.949Z,19.85
2024-02-12T07:47:06.528Z,21.90
2024-02-12T07:49:34.087Z,23.08
2024-02-12T07:52:01.416Z,20.33
2024-02-12T07:54:30.044Z,19.70
2024-02-12T07:56:57.207Z,20.48
2024-02-12T07:59:25.283Z,23.23
2024-02-12T08:01:55.547Z,21.30
2024-02-12T08:04:23.067Z,21.35
2024-02-12T08:06:50.008Z,18.90
2024-02-12T08:09:18.717Z,24.10
2024-02-12T08:11:46.795Z,21.65
2024-02-12T08:14:13.848Z,17.88
2024-02-12T08:16:44.884Z,18.30
2024-02-12T08:19:11.977Z,18.88
2024-02-12T08:21:38.810Z,17.88
2024-02-12T08:24:05.779Z,18.60
2024-02-12T08:26:32.521Z,21.85
2024-02-12T08:29:02.236Z,23.35
2024-02-12T08:31:28.945Z,19.40
2024-02-12T08:33:57.551Z,21.13
2024-02-12T08:36:25.138Z,21.23
2024-02-12T08:38:51.877Z,19.70
2024-02-12T08:41:24.154Z,20.83
2024-02-12T08:43:52.269Z,18.63
2024-02-12T08:46:19.559Z,18.20
2024-02-12T08:48:46.913Z,19.52
2024-02-12T08:51:13.856Z,20.42
2024-02-12T08:53:45.009Z,20.27
2024-02-12T08:56:15.527Z,17.38
2024-02-12T08:58:44.840Z,22.52
2024-02-12T09:01:12.266Z,21.48
2024-02-12T09:03:44.047Z,18.80
2024-02-12T09:06:16.213Z,17.05
2024-02-12T09:08:46.942Z,16.67
2024-02-12T09:11:14.449Z,18.10
2024-02-12T09:13:43.723Z,16.73
2024-02-12T09:16:10.732Z,17.35
2024-02-12T09:18:38.185Z,16.30
2024-02-12T09:21:05.556Z,18.25
2024-02-12T09:23:32.399Z,16.42
2024-02-12T09:25:59.300Z,17.17
2024-02-12T09:28:28.070Z,17.85
2024-02-12T09:30:58.447Z,16.05
2024-02-12T09:33:25.542Z,18.08
2024-02-12T09:35:52.424Z,16.42
2024-02-12T09:38:19.896Z,15.27
2024-02-12T09:40:46.886Z,14.57
2024-02-12T09:43:22.001Z,17.30
2024-02-12T09:45:50.996Z,14.75
2024-02-12T09:48:18.868Z,18.02
2024-02-12T09:50:51.790Z,15.95
2024-02-12T09:53:20.408Z,14.32
2024-02-12T09:55:48.350Z,18.15
2024-02-12T09:58:19.941Z,14.55
2024-02-12T10:00:47.982Z,16.17
2024-02-12T10:03:15.081Z,15.10
2024-02-12T10:05:42.870Z,14.60
2024-02-12T10:08:23.491Z,14.43
2024-02-12T10:10:51.061Z,13.57
2024-02-12T10:13:18.068Z,14.88
2024-02-12T10:15:46.420Z,19.88
2024-02-12T10:18:17.271Z,18.73
2024-02-12T10:20:44.903Z,15.18
2024-02-12T10:23:16.665Z,17.48
2024-02-12T10:25:46.663Z,13.35
2024-02-12T10:28:17.081Z,16.83
2024-02-12T10:30:43.960Z,15.48
2024-02-12T10:33:12.395Z,12.68
2024-02-12T10:35:47.236Z,14.48
2024-02-12T10:38:15.580Z,16.55
2024-02-12T10:41:16.237Z,10.60
2024-02-12T10:43:44.829Z,13.02
2024-02-12T10:46:13.690Z,19.73
2024-02-12T10:48:45.054Z,11.73
2024-02-12T10:51:11.966Z,16.75
2024-02-12T10:53:40.561Z,9.52
2024-02-12T10:56:09.195Z,15.40
2024-02-12T10:58:36.838Z,13.38
2024-02-12T11:01:04.914Z,13.60
2024-02-12T11:03:39.777Z,15.25
2024-02-12T11:06:15.530Z,11.52
2024-02-12T11:08:45.695Z,14.50
2024-02-12T11:11:24.110Z,13.90
2024-02-12T11:13:58.254Z,12.57
2024-02-12T11:16:29.312Z,10.68
2024-02-12T11:18:59.885Z,12.35
2024-02-12T11:21:37.180Z,12.57
2024-02-12T11:24:10.622Z,15.85
2024-02-12T11:26:42.261Z,14.40
2024-02-12T11:29:10.262Z,10.57
2024-02-12T11:31:42.267Z,14.75
2024-02-12T11:34:20.389Z,12.30
2024-02-12T11:37:01.155Z,14.13
2024-02-12T11:39:28.051Z,14.00
2024-02-12T11:41:54.718Z,11.45
2024-02-12T11:44:21.541Z,9.15
2024-02-12T11:47:00.209Z,11.80
2024-02-12T11:49:27.255Z,10.30
2024-02-12T11:51:56.421Z,9.95
2024-02-12T11:54:23.303Z,9.85
2024-02-12T11:56:52.157Z,12.98
2024-02-12T11:59:21.094Z,12.02
2024-02-12T12:01:48.546Z,12.55
2024-02-12T12:04:17.645Z,11.75
2024-02-12T12:06:44.741Z,13.63
2024-02-12T12:09:12.319Z,12.50
2024-02-12T12:11:43.274Z,15.02
2024-02-12T12:14:11.621Z,12.60
2024-02-12T12:16:38.334Z,12.15
2024-02-12T12:19:08.325Z,13.38
2024-02-12T12:21:36.275Z,10.50
2024-02-12T12:24:03.692Z,12.52
2024-02-12T12:26:31.230Z,9.60
2024-02-12T12:29:00.558Z,9.38
2024-02-12T12:31:30.433Z,10.55
2024-02-12T12:33:57.130Z,12.82
2024-02-12T12:36:23.784Z,10.70
2024-02-12T12:38:50.412Z,9.30
2024-02-12T12:41:20.180Z,11.55
2024-02-12T12:43:46.828Z,9.60
2024-02-12T12:46:13.912Z,9.52
2024-02-12T12:48:41.858Z,9.23
2024-02-12T12:51:10.111Z,9.90
2024-02-12T12:53:38.742Z,10.00
2024-02-12T12:56:06.470Z,11.18
2024-02-12T12:58:33.671Z,8.80
2024-02-12T13:01:00.284Z,8.05
2024-02-12T13:03:27.062Z,10.80
2024-02-12T13:05:54.078Z,11.80
2024-02-12T13:08:24.184Z,10.82
2024-02-12T13:10:52.506Z,11.50
2024-02-12T13:13:20.661Z,8.98
2024-02-12T13:15:48.105Z,8.98
2024-02-12T13:18:17.847Z,14.77
2024-02-12T13:20:47.091Z,7.28
2024-02-12T13:23:14.858Z,8.52
2024-02-12T13:25:41.707Z,6.10
2024-02-12T13:28:12.538Z,11.35
2024-02-12T13:30:39.914Z,9.20
2024-02-12T13:33:09.761Z,9.45
2024-02-12T13:35:43.534Z,7.88
2024-02-12T13:38:14.035Z,8.73
2024-02-12T13:40:41.328Z,9.65
2024-02-12T13:43:12.081Z,7.35
2024-02-12T13:45:41.116Z,8.82
2024-02-12T13:48:11.351Z,8.15
2024-02-12T13:50:39.110Z,12.98
2024-02-12T13:53:06.574Z,8.57
2024-02-12T13:55:34.067Z,9.40
2024-02-12T13:58:01.152Z,9.85
2024-02-12T14:00:44.704Z,8.80
2024-02-12T14:03:15.107Z,8.85
2024-02-12T14:05:43.164Z,11.15
2024-02-12T14:08:11.383Z,8.27
2024-02-12T14:10:38.732Z,9.80
2024-02-12T14:13:05.530Z,9.18
2024-02-12T14:16:03.347Z,6.20
2024-02-12T14:18:19.592Z,9.63
2024-02-12T14:20:46.445Z,9.05
2024-02-12T14:23:13.409Z,8.10
2024-02-12T14:25:41.484Z,8.07
2024-02-12T14:28:10.839Z,8.50
2024-02-12T14:30:37.720Z,9.25
2024-02-12T14:33:06.387Z,10.45
2024-02-12T14:35:40.298Z,7.05
2024-02-12T14:38:07.282Z,6.88
2024-02-12T14:40:33.930Z,9.27
2024-02-12T14:43:00.539Z,7.93
2024-02-12T14:45:31.178Z,9.68
2024-02-12T14:48:09.915Z,10.80
2024-02-12T14:50:36.883Z,6.70
2024-02-12T14:53:06.121Z,9.68
2024-02-12T14:55:33.306Z,8.20
2024-02-12T14:58:00.284Z,8.38
2024-02-12T15:00:27.145Z,8.00
2024-02-12T15:02:55.866Z,7.25
2024-02-12T15:05:26.360Z,9.02
2024-02-12T15:07:53.634Z,8.00
2024-02-12T15:10:22.751Z,8.25
2024-02-12T15:12:50.122Z,11.70
2024-02-12T15:15:19.849Z,6.43
2024-02-12T15:17:57.693Z,9.38
2024-02-12T15:20:26.977Z,7.20
2024-02-12T15:22:54.796Z,7.60
2024-02-12T15:25:24.010Z,8.05
2024-02-12T15:27:51.903Z,8.07
2024-02-12T15:30:22.603Z,7.70
2024-02-12T15:32:49.868Z,7.05
2024-02-12T15:35:17.943Z,7.40
2024-02-12T15:37:45.498Z,6.13
2024-02-12T15:40:13.109Z,6.55
2024-02-12T15:42:44.828Z,7.50
2024-02-12T15:45:12.706Z,7.47
2024-02-12T15:47:44.852Z,6.13
2024-02-12T15:50:13.076Z,10.90
2024-02-12T15:52:46.153Z,6.45
2024-02-12T15:55:13.555Z,7.40
2024-02-12T15:57:45.127Z,6.82
2024-02-12T16:00:15.900Z,6.22
2024-02-12T16:02:45.880Z,9.70
2024-02-12T16:05:50.988Z,9.55
2024-02-12T16:08:19.291Z,7.70
2024-02-12T16:10:46.980Z,10.10
2024-02-12T16:13:13.962Z,7.25
2024-02-12T16:15:40.698Z,7.28
2024-02-12T16:18:09.207Z,7.50
2024-02-12T16:20:36.416Z,10.20
2024-02-12T16:23:03.829Z,8.82
2024-02-12T16:25:31.419Z,8.20
2024-02-12T16:27:59.463Z,7.93
2024-02-12T16:30:27.003Z,9.95
2024-02-12T16:32:55.205Z,10.35
2024-02-12T16:35:22.157Z,9.25
2024-02-12T16:37:48.806Z,9.40
2024-02-12T16:40:15.650Z,7.07
2024-02-12T16:42:43.410Z,12.23
2024-02-12T16:45:11.000Z,6.00
2024-02-12T16:47:40.766Z,9.25
2024-02-12T16:50:08.932Z,6.70
2024-02-12T16:52:36.491Z,9.60
2024-02-12T16:55:04.358Z,11.93
2024-02-12T16:57:31.043Z,7.10
2024-02-12T16:59:58.419Z,9.93
2024-02-12T17:02:27.121Z,8.02
2024-02-12T17:04:56.611Z,9.10
2024-02-12T17:07:31.291Z,8.70
2024-02-12T17:09:58.899Z,8.80
2024-02-12T17:12:27.333Z,10.48
2024-02-12T17:14:58.733Z,8.65
2024-02-12T17:17:25.443Z,6.80
2024-02-12T17:19:52.824Z,7.65
2024-02-12T17:22:19.455Z,8.23
2024-02-12T17:24:48.022Z,8.75
2024-02-12T17:27:16.582Z,6.65
2024-02-12T17:29:44.178Z,7.25
2024-02-12T17:32:10.983Z,6.97
2024-02-12T17:34:39.649Z,8.23
2024-02-12T17:37:07.016Z,7.78
2024-02-12T17:39:36.920Z,9.45
2024-02-12T17:42:07.398Z,8.95
2024-02-12T17:44:34.248Z,11.50
2024-02-12T17:47:01.475Z,6.93
2024-02-12T17:49:28.289Z,6.22
2024-02-12T17:51:55.587Z,8.65
2024-02-12T17:54:25.998Z,9.02
2024-02-12T17:56:55.599Z,5.60
2024-02-12T17:59:23.755Z,5.85
2024-02-12T18:01:50.526Z,9.20
2024-02-12T18:04:18.036Z,6.50
2024-02-12T18:06:45.140Z,9.48
2024-02-12T18:09:12.545Z,8.45
2024-02-12T18:11:40.084Z,6.32
2024-02-12T18:14:06.898Z,7.40
2024-02-12T18:16:33.550Z,6.00
2024-02-12T18:19:01.461Z,11.45
2024-02-12T18:21:28.331Z,10.30
2024-02-12T18:23:55.079Z,7.20
2024-02-12T18:26:25.025Z,8.73
2024-02-12T18:28:52.486Z,9.57
2024-02-12T18:31:20.337Z,8.80
2024-02-12T18:33:49.625Z,8.65
2024-02-12T18:36:16.438Z,9.43
2024-02-12T18:38:43.292Z,10.02
2024-02-12T18:41:15.026Z,10.30
2024-02-12T18:43:43.787Z,8.18
2024-02-12T18:46:10.887Z,9.63
2024-02-12T18:48:37.751Z,8.38
2024-02-12T18:51:07.159Z,5.85
2024-02-12T18:53:33.889Z,7.13
2024-02-12T18:56:04.961Z,10.40
2024-02-12T18:58:32.324Z,6.18
2024-02-12T19:00:58.964Z,6.70
2024-02-12T19:03:25.639Z,9.07
2024-02-12T19:05:52.552Z,7.50
2024-02-12T19:08:22.530Z,7.85
2024-02-12T19:10:49.263Z,8.52
2024-02-12T19:13:15.896Z,7.72
2024-02-12T19:15:42.533Z,10.02
2024-02-12T19:18:09.368Z,8.30
2024-02-12T19:20:36.922Z,9.02
2024-02-12T19:23:08.074Z,7.28
2024-02-12T19:25:38.165Z,7.00
2024-02-12T19:28:10.384Z,7.65
2024-02-12T19:30:37.630Z,6.60
2024-02-12T19:33:08.402Z,9.77
2024-02-12T19:35:35.884Z,9.07
2024-02-12T19:38:05.616Z,8.82
2024-02-12T19:40:37.787Z,7.45
2024-02-12T19:43:05.861Z,9.65
2024-02-12T19:45:32.584Z,8.13
2024-02-12T19:47:59.353Z,10.60
2024-02-12T19:50:26.144Z,11.02
2024-02-12T19:52:53.774Z,10.35
2024-02-12T19:55:20.680Z,7.13
2024-02-12T19:57:48.227Z,8.40
2024-02-12T20:00:15.606Z,7.30
2024-02-12T20:02:43.789Z,8.65
2024-02-12T20:05:11.425Z,8.77
2024-02-12T20:07:41.763Z,8.77
2024-02-12T20:10:11.337Z,11.23
2024-02-12T20:12:39.555Z,14.57
2024-02-12T20:15:07.897Z,9.73
2024-02-12T20:17:34.723Z,10.07
2024-02-12T20:20:01.514Z,11.52
2024-02-12T20:22:28.137Z,8.90
2024-02-12T20:24:54.980Z,7.30
2024-02-12T20:27:21.615Z,6.53
2024-02-12T20:29:48.500Z,8.18
2024-02-12T20:32:15.222Z,7.40
2024-02-12T20:34:41.963Z,7.18
2024-02-12T20:37:11.790Z,8.95
2024-02-12T20:39:40.945Z,10.10
2024-02-12T20:42:08.481Z,9.77
2024-02-12T20:44:35.446Z,7.38
2024-02-12T20:47:03.966Z,8.75
2024-02-12T20:49:31.333Z,7.55
2024-02-12T20:51:58.291Z,9.63
2024-02-12T20:54:32.222Z,7.93
2024-02-12T20:57:03.912Z,8.63
2024-02-12T20:59:30.694Z,7.45
2024-02-12T21:01:57.409Z,8.25
2024-02-12T21:04:24.154Z,9.80
2024-02-12T21:06:50.904Z,8.65
2024-02-12T21:09:19.684Z,6.75
2024-02-12T21:11:49.020Z,8.57
2024-02-12T21:14:15.768Z,7.63
2024-02-12T21:16:42.473Z,10.65
2024-02-12T21:19:09.110Z,10.15
2024-02-12T21:21:39.046Z,8.85
2024-02-12T21:24:09.844Z,7.32
2024-02-12T21:26:36.551Z,10.32
2024-02-12T21:29:07.772Z,11.80
2024-02-12T21:31:34.493Z,9.77
2024-02-12T21:34:01.216Z,10.57
2024-02-12T21:36:29.824Z,8.77
2024-02-12T21:38:57.654Z,10.95
2024-02-12T21:41:47.608Z,12.10
2024-02-12T21:44:14.300Z,10.32
2024-02-12T21:46:41.932Z,9.65
2024-02-12T21:49:08.917Z,9.77
2024-02-12T21:51:35.763Z,11.15
2024-02-12T21:54:03.711Z,9.63
2024-02-12T21:56:30.961Z,9.48
2024-02-12T21:58:57.574Z,10.70
2024-02-12T22:01:24.232Z,7.70
2024-02-12T22:03:50.926Z,7.38
2024-02-12T22:06:18.695Z,8.82
2024-02-12T22:08:47.475Z,8.73
2024-02-12T22:11:15.010Z,10.98
2024-02-12T22:13:42.337Z,10.30
2024-02-12T22:16:09.725Z,9.68
2024-02-12T22:18:36.533Z,11.10
2024-02-12T22:21:03.332Z,8.98
2024-02-12T22:23:30.194Z,10.45
2024-02-12T22:25:57.110Z,9.57
2024-02-12T22:28:23.972Z,8.55
2024-02-12T22:30:52.810Z,9.75
2024-02-12T22:33:19.818Z,9.70
2024-02-12T22:35:49.641Z,11.32
2024-02-12T22:38:17.343Z,12.20
2024-02-12T22:40:46.853Z,7.22
2024-02-12T22:43:14.045Z,10.45
2024-02-12T22:45:42.919Z,8.30
2024-02-12T22:48:10.317Z,7.57
2024-02-12T22:50:40.938Z,8.80
2024-02-12T22:53:11.391Z,7.15
2024-02-12T22:55:41.310Z,8.93
2024-02-12T22:58:09.364Z,8.10
2024-02-12T23:00:42.291Z,13.88
2024-02-12T23:03:09.102Z,7.97
2024-02-12T23:05:35.903Z,6.93
2024-02-12T23:08:02.711Z,10.30
2024-02-12T23:10:30.263Z,9.40
2024-02-12T23:12:56.987Z,10.52
2024-02-12T23:15:23.743Z,10.40
2024-02-12T23:17:53.415Z,9.80
2024-02-12T23:20:22.055Z,10.65
2024-02-12T23:22:48.832Z,9.57
2024-02-12T23:25:15.632Z,9.57
2024-02-12T23:27:42.502Z,11.85
2024-02-12T23:30:09.888Z,13.43
2024-02-12T23:32:36.840Z,12.20
2024-02-12T23:35:08.857Z,10.90
2024-02-12T23:37:35.607Z,14.13
2024-02-12T23:40:04.442Z,7.93
2024-02-12T23:42:34.678Z,12.23
2024-02-12T23:45:01.329Z,10.77
2024-02-12T23:47:28.164Z,12.10
2024-02-12T23:49:54.932Z,12.20
2024-02-12T23:52:21.544Z,10.98
2024-02-12T23:54:50.878Z,9.40
2024-02-12T23:57:17.561Z,12.20
2024-02-12T23:59:45.421Z,10.65
